sensor_id;sensor_type;location;lat;lon;timestamp;pressure;altitude;pressure_sealevel;temperature;humidity
6506;BME280;3286;49.858;8.768;2023-03-17T00:00:06;98926.16;;;7.15;50.52
6506;BME280;3286;49.858;8.768;2023-03-17T00:02:33;98914.69;;;7.46;50.31
6506;BME280;3286;49.858;8.768;2023-03-17T00:05:00;98917.34;;;7.46;50.17
6506;BME280;3286;49.858;8.768;2023-03-17T00:07:27;98910.00;;;7.69;49.23
6506;BME280;3286;49.858;8.768;2023-03-17T00:09:54;98901.56;;;7.65;49.63
6506;BME280;3286;49.858;8.768;2023-03-17T00:12:22;98904.19;;;7.56;50.28
6506;BME280;3286;49.858;8.768;2023-03-17T00:14:49;98897.78;;;7.88;49.10
6506;BME280;3286;49.858;8.768;2023-03-17T00:17:15;98893.19;;;8.09;48.79
6506;BME280;3286;49.858;8.768;2023-03-17T00:19:42;98889.78;;;7.30;50.92
6506;BME280;3286;49.858;8.768;2023-03-17T00:22:14;98899.19;;;6.72;52.51
6506;BME280;3286;49.858;8.768;2023-03-17T00:24:42;98889.53;;;7.53;50.42
6506;BME280;3286;49.858;8.768;2023-03-17T00:27:10;98894.47;;;7.17;51.24
6506;BME280;3286;49.858;8.768;2023-03-17T00:29:39;98895.88;;;7.60;50.51
6506;BME280;3286;49.858;8.768;2023-03-17T00:32:10;98891.03;;;7.65;49.89
6506;BME280;3286;49.858;8.768;2023-03-17T00:34:41;98887.88;;;7.52;50.17
6506;BME280;3286;49.858;8.768;2023-03-17T00:37:09;98894.91;;;7.61;49.78
6506;BME280;3286;49.858;8.768;2023-03-17T00:39:37;98899.06;;;7.44;50.76
6506;BME280;3286;49.858;8.768;2023-03-17T00:42:04;98896.44;;;7.54;50.24
6506;BME280;3286;49.858;8.768;2023-03-17T00:44:31;98886.47;;;7.48;50.49
6506;BME280;3286;49.858;8.768;2023-03-17T00:46:59;98886.75;;;7.45;50.29
6506;BME280;3286;49.858;8.768;2023-03-17T00:49:27;98881.63;;;7.63;50.39
6506;BME280;3286;49.858;8.768;2023-03-17T00:51:53;98892.00;;;7.54;50.14
6506;BME280;3286;49.858;8.768;2023-03-17T00:54:20;98876.34;;;7.33;50.35
6506;BME280;3286;49.858;8.768;2023-03-17T00:56:48;98877.63;;;7.39;50.59
6506;BME280;3286;49.858;8.768;2023-03-17T01:01:42;98877.50;;;7.41;50.51
6506;BME280;3286;49.858;8.768;2023-03-17T01:04:10;98870.84;;;7.36;50.27
6506;BME280;3286;49.858;8.768;2023-03-17T01:06:37;98869.47;;;7.42;50.11
6506;BME280;3286;49.858;8.768;2023-03-17T01:09:04;98869.31;;;7.14;50.72
6506;BME280;3286;49.858;8.768;2023-03-17T01:11:32;98874.28;;;7.27;50.22
6506;BME280;3286;49.858;8.768;2023-03-17T01:13:59;98871.09;;;7.14;50.47
6506;BME280;3286;49.858;8.768;2023-03-17T01:16:25;98869.63;;;6.70;51.83
6506;BME280;3286;49.858;8.768;2023-03-17T01:18:53;98858.75;;;6.85;51.37
6506;BME280;3286;49.858;8.768;2023-03-17T01:21:21;98848.56;;;7.01;51.18
6506;BME280;3286;49.858;8.768;2023-03-17T01:23:48;98851.44;;;7.08;50.95
6506;BME280;3286;49.858;8.768;2023-03-17T01:26:14;98845.53;;;7.25;50.73
6506;BME280;3286;49.858;8.768;2023-03-17T01:28:41;98852.72;;;7.23;50.44
6506;BME280;3286;49.858;8.768;2023-03-17T01:31:08;98847.88;;;7.19;50.68
6506;BME280;3286;49.858;8.768;2023-03-17T01:33:34;98845.50;;;7.06;50.59
6506;BME280;3286;49.858;8.768;2023-03-17T01:36:01;98841.78;;;7.28;50.41
6506;BME280;3286;49.858;8.768;2023-03-17T01:38:29;98845.63;;;6.75;51.65
6506;BME280;3286;49.858;8.768;2023-03-17T01:40:57;98847.28;;;6.95;51.31
6506;BME280;3286;49.858;8.768;2023-03-17T01:43:24;98834.84;;;6.88;51.83
6506;BME280;3286;49.858;8.768;2023-03-17T01:46:19;98841.38;;;7.23;51.06
6506;BME280;3286;49.858;8.768;2023-03-17T01:48:50;98839.56;;;7.04;51.05
6506;BME280;3286;49.858;8.768;2023-03-17T01:51:21;98835.28;;;7.03;51.33
6506;BME280;3286;49.858;8.768;2023-03-17T01:53:51;98834.72;;;7.09;51.28
6506;BME280;3286;49.858;8.768;2023-03-17T01:56:19;98832.94;;;7.00;51.80
6506;BME280;3286;49.858;8.768;2023-03-17T01:58:48;98824.06;;;7.01;51.61
6506;BME280;3286;49.858;8.768;2023-03-17T02:01:18;98818.28;;;6.87;51.91
6506;BME280;3286;49.858;8.768;2023-03-17T02:03:48;98820.03;;;6.67;52.16
6506;BME280;3286;49.858;8.768;2023-03-17T02:06:15;98816.47;;;6.98;51.40
6506;BME280;3286;49.858;8.768;2023-03-17T02:08:41;98801.28;;;6.91;51.13
6506;BME280;3286;49.858;8.768;2023-03-17T02:11:09;98808.19;;;7.02;51.59
6506;BME280;3286;49.858;8.768;2023-03-17T02:13:36;98800.69;;;6.88;51.33
6506;BME280;3286;49.858;8.768;2023-03-17T02:16:03;98793.94;;;7.05;51.07
6506;BME280;3286;49.858;8.768;2023-03-17T02:18:31;98802.13;;;7.12;50.80
6506;BME280;3286;49.858;8.768;2023-03-17T02:24:20;98802.66;;;6.95;51.11
6506;BME280;3286;49.858;8.768;2023-03-17T02:26:48;98801.28;;;6.91;51.36
6506;BME280;3286;49.858;8.768;2023-03-17T02:29:17;98811.22;;;6.98;51.05
6506;BME280;3286;49.858;8.768;2023-03-17T02:31:44;98812.88;;;6.89;51.87
6506;BME280;3286;49.858;8.768;2023-03-17T02:34:11;98825.56;;;6.84;51.97
6506;BME280;3286;49.858;8.768;2023-03-17T02:36:38;98826.28;;;6.95;51.25
6506;BME280;3286;49.858;8.768;2023-03-17T02:39:05;98827.09;;;6.86;51.15
6506;BME280;3286;49.858;8.768;2023-03-17T02:41:34;98820.91;;;6.87;50.92
6506;BME280;3286;49.858;8.768;2023-03-17T02:44:01;98815.38;;;6.90;50.81
6506;BME280;3286;49.858;8.768;2023-03-17T02:46:28;98814.22;;;6.73;51.46
6506;BME280;3286;49.858;8.768;2023-03-17T02:48:55;98812.28;;;6.65;51.64
6506;BME280;3286;49.858;8.768;2023-03-17T02:51:22;98810.75;;;6.73;51.49
6506;BME280;3286;49.858;8.768;2023-03-17T02:53:49;98809.34;;;6.49;51.80
6506;BME280;3286;49.858;8.768;2023-03-17T02:56:15;98810.91;;;6.30;52.07
6506;BME280;3286;49.858;8.768;2023-03-17T02:58:43;98807.91;;;6.35;52.41
6506;BME280;3286;49.858;8.768;2023-03-17T03:01:10;98805.50;;;6.22;52.47
6506;BME280;3286;49.858;8.768;2023-03-17T03:03:37;98802.22;;;6.30;52.06
6506;BME280;3286;49.858;8.768;2023-03-17T03:06:04;98799.31;;;6.23;52.48
6506;BME280;3286;49.858;8.768;2023-03-17T03:08:31;98787.75;;;6.35;52.12
6506;BME280;3286;49.858;8.768;2023-03-17T03:10:57;98790.09;;;6.29;52.16
6506;BME280;3286;49.858;8.768;2023-03-17T03:13:24;98780.09;;;6.13;52.41
6506;BME280;3286;49.858;8.768;2023-03-17T03:15:52;98771.94;;;6.16;52.13
6506;BME280;3286;49.858;8.768;2023-03-17T03:18:19;98773.19;;;5.90;53.10
6506;BME280;3286;49.858;8.768;2023-03-17T03:20:46;98772.22;;;5.91;53.19
6506;BME280;3286;49.858;8.768;2023-03-17T03:23:13;98781.97;;;6.01;52.74
6506;BME280;3286;49.858;8.768;2023-03-17T03:25:40;98782.06;;;5.68;53.35
6506;BME280;3286;49.858;8.768;2023-03-17T03:28:08;98782.06;;;5.26;55.41
6506;BME280;3286;49.858;8.768;2023-03-17T03:30:36;98776.16;;;5.76;53.76
6506;BME280;3286;49.858;8.768;2023-03-17T03:33:04;98776.44;;;5.73;53.62
6506;BME280;3286;49.858;8.768;2023-03-17T03:35:31;98778.75;;;5.97;53.25
6506;BME280;3286;49.858;8.768;2023-03-17T03:37:59;98767.34;;;6.08;52.70
6506;BME280;3286;49.858;8.768;2023-03-17T03:40:25;98784.69;;;5.99;53.02
6506;BME280;3286;49.858;8.768;2023-03-17T03:42:52;98785.31;;;5.60;53.63
6506;BME280;3286;49.858;8.768;2023-03-17T03:45:19;98785.88;;;5.64;53.94
6506;BME280;3286;49.858;8.768;2023-03-17T03:47:45;98785.53;;;5.78;53.60
6506;BME280;3286;49.858;8.768;2023-03-17T03:50:13;98792.06;;;5.84;53.29
6506;BME280;3286;49.858;8.768;2023-03-17T03:52:40;98787.09;;;6.02;52.95
6506;BME280;3286;49.858;8.768;2023-03-17T03:55:07;98786.66;;;6.07;52.69
6506;BME280;3286;49.858;8.768;2023-03-17T03:57:34;98772.22;;;5.91;52.72
6506;BME280;3286;49.858;8.768;2023-03-17T04:00:01;98770.56;;;5.90;52.16
6506;BME280;3286;49.858;8.768;2023-03-17T04:02:29;98774.19;;;5.68;52.97
6506;BME280;3286;49.858;8.768;2023-03-17T04:04:56;98776.22;;;5.64;53.05
6506;BME280;3286;49.858;8.768;2023-03-17T04:07:24;98773.28;;;5.79;52.85
6506;BME280;3286;49.858;8.768;2023-03-17T04:09:50;98776.69;;;5.48;53.77
6506;BME280;3286;49.858;8.768;2023-03-17T04:12:17;98775.53;;;5.41;54.24
6506;BME280;3286;49.858;8.768;2023-03-17T04:14:44;98774.72;;;5.62;53.02
6506;BME280;3286;49.858;8.768;2023-03-17T04:17:11;98777.34;;;5.62;52.48
6506;BME280;3286;49.858;8.768;2023-03-17T04:19:38;98774.19;;;5.47;52.83
6506;BME280;3286;49.858;8.768;2023-03-17T04:22:06;98769.16;;;5.34;52.79
6506;BME280;3286;49.858;8.768;2023-03-17T04:24:35;98771.56;;;5.26;53.18
6506;BME280;3286;49.858;8.768;2023-03-17T04:27:02;98775.22;;;5.34;53.09
6506;BME280;3286;49.858;8.768;2023-03-17T04:29:29;98776.44;;;5.73;52.21
6506;BME280;3286;49.858;8.768;2023-03-17T04:31:56;98779.00;;;5.20;53.49
6506;BME280;3286;49.858;8.768;2023-03-17T04:34:22;98774.94;;;4.95;54.10
6506;BME280;3286;49.858;8.768;2023-03-17T04:36:49;98775.69;;;5.07;53.50
6506;BME280;3286;49.858;8.768;2023-03-17T04:39:16;98769.97;;;5.13;53.42
6506;BME280;3286;49.858;8.768;2023-03-17T04:41:44;98771.50;;;4.83;53.93
6506;BME280;3286;49.858;8.768;2023-03-17T04:44:11;98766.06;;;5.07;53.38
6506;BME280;3286;49.858;8.768;2023-03-17T04:46:38;98770.47;;;4.74;54.11
6506;BME280;3286;49.858;8.768;2023-03-17T04:49:05;98771.06;;;4.78;53.96
6506;BME280;3286;49.858;8.768;2023-03-17T04:51:31;98766.28;;;4.83;53.09
6506;BME280;3286;49.858;8.768;2023-03-17T04:53:59;98764.91;;;5.00;52.78
6506;BME280;3286;49.858;8.768;2023-03-17T04:56:26;98748.63;;;4.97;53.89
6506;BME280;3286;49.858;8.768;2023-03-17T04:58:54;98752.25;;;4.84;54.60
6506;BME280;3286;49.858;8.768;2023-03-17T05:01:21;98761.25;;;4.91;54.21
6506;BME280;3286;49.858;8.768;2023-03-17T05:03:47;98753.06;;;5.17;52.47
6506;BME280;3286;49.858;8.768;2023-03-17T05:06:14;98774.59;;;4.88;53.79
6506;BME280;3286;49.858;8.768;2023-03-17T05:08:42;98767.78;;;4.97;53.24
6506;BME280;3286;49.858;8.768;2023-03-17T05:11:10;98770.81;;;4.81;54.18
6506;BME280;3286;49.858;8.768;2023-03-17T05:13:37;98769.56;;;4.64;53.71
6506;BME280;3286;49.858;8.768;2023-03-17T05:16:07;98769.78;;;4.61;54.14
6506;BME280;3286;49.858;8.768;2023-03-17T05:18:34;98774.88;;;4.62;54.28
6506;BME280;3286;49.858;8.768;2023-03-17T05:21:01;98782.50;;;4.66;53.60
6506;BME280;3286;49.858;8.768;2023-03-17T05:23:28;98796.00;;;4.15;55.44
6506;BME280;3286;49.858;8.768;2023-03-17T05:25:55;98811.31;;;4.20;55.43
6506;BME280;3286;49.858;8.768;2023-03-17T05:28:22;98811.81;;;4.14;55.35
6506;BME280;3286;49.858;8.768;2023-03-17T05:30:49;98803.94;;;4.48;54.64
6506;BME280;3286;49.858;8.768;2023-03-17T05:33:17;98802.53;;;4.44;54.96
6506;BME280;3286;49.858;8.768;2023-03-17T05:35:45;98807.16;;;4.52;54.74
6506;BME280;3286;49.858;8.768;2023-03-17T05:38:12;98811.06;;;4.57;54.29
6506;BME280;3286;49.858;8.768;2023-03-17T05:40:39;98811.91;;;4.46;54.48
6506;BME280;3286;49.858;8.768;2023-03-17T05:43:07;98818.94;;;4.23;55.25
6506;BME280;3286;49.858;8.768;2023-03-17T05:45:33;98814.19;;;4.40;54.76
6506;BME280;3286;49.858;8.768;2023-03-17T05:48:00;98809.41;;;4.45;55.36
6506;BME280;3286;49.858;8.768;2023-03-17T05:50:28;98817.59;;;4.63;54.45
6506;BME280;3286;49.858;8.768;2023-03-17T05:52:55;98826.25;;;4.75;53.98
6506;BME280;3286;49.858;8.768;2023-03-17T05:55:21;98822.44;;;4.68;53.87
6506;BME280;3286;49.858;8.768;2023-03-17T05:57:48;98823.19;;;4.58;54.09
6506;BME280;3286;49.858;8.768;2023-03-17T06:00:16;98819.97;;;4.66;54.32
6506;BME280;3286;49.858;8.768;2023-03-17T06:02:43;98819.03;;;4.44;54.90
6506;BME280;3286;49.858;8.768;2023-03-17T06:05:10;98817.63;;;4.40;55.54
6506;BME280;3286;49.858;8.768;2023-03-17T06:07:39;98823.56;;;4.42;56.04
6506;BME280;3286;49.858;8.768;2023-03-17T06:10:07;98815.59;;;4.44;55.34
6506;BME280;3286;49.858;8.768;2023-03-17T06:12:34;98814.88;;;4.53;54.55
6506;BME280;3286;49.858;8.768;2023-03-17T06:15:00;98814.50;;;4.69;54.08
6506;BME280;3286;49.858;8.768;2023-03-17T06:17:28;98811.66;;;4.61;56.06
6506;BME280;3286;49.858;8.768;2023-03-17T06:19:54;98809.78;;;4.52;56.42
6506;BME280;3286;49.858;8.768;2023-03-17T06:22:21;98809.28;;;5.02;54.64
6506;BME280;3286;49.858;8.768;2023-03-17T06:24:49;98806.84;;;5.21;54.06
6506;BME280;3286;49.858;8.768;2023-03-17T06:27:17;98802.44;;;5.43;53.72
6506;BME280;3286;49.858;8.768;2023-03-17T06:29:44;98807.41;;;5.25;53.75
6506;BME280;3286;49.858;8.768;2023-03-17T06:32:11;98802.94;;;5.37;53.70
6506;BME280;3286;49.858;8.768;2023-03-17T06:34:37;98808.25;;;5.68;53.56
6506;BME280;3286;49.858;8.768;2023-03-17T06:37:04;98807.38;;;5.58;53.75
6506;BME280;3286;49.858;8.768;2023-03-17T06:39:31;98814.06;;;5.93;53.00
6506;BME280;3286;49.858;8.768;2023-03-17T06:41:59;98808.63;;;6.06;52.87
6506;BME280;3286;49.858;8.768;2023-03-17T06:44:25;98811.75;;;6.31;52.56
6506;BME280;3286;49.858;8.768;2023-03-17T06:46:52;98808.75;;;6.45;52.54
6506;BME280;3286;49.858;8.768;2023-03-17T06:49:18;98819.34;;;6.65;52.50
6506;BME280;3286;49.858;8.768;2023-03-17T06:51:45;98812.06;;;6.37;52.80
6506;BME280;3286;49.858;8.768;2023-03-17T06:54:12;98819.47;;;6.22;53.48
6506;BME280;3286;49.858;8.768;2023-03-17T06:56:38;98814.44;;;6.41;53.02
6506;BME280;3286;49.858;8.768;2023-03-17T06:59:06;98816.59;;;6.26;53.73
6506;BME280;3286;49.858;8.768;2023-03-17T07:01:33;98820.66;;;6.49;54.04
6506;BME280;3286;49.858;8.768;2023-03-17T07:03:59;98812.28;;;6.56;53.28
6506;BME280;3286;49.858;8.768;2023-03-17T07:06:26;98816.34;;;6.89;54.21
6506;BME280;3286;49.858;8.768;2023-03-17T07:08:53;98818.00;;;7.30;51.36
6506;BME280;3286;49.858;8.768;2023-03-17T07:11:21;98828.78;;;7.46;50.63
6506;BME280;3286;49.858;8.768;2023-03-17T07:13:48;98829.88;;;7.53;49.63
6506;BME280;3286;49.858;8.768;2023-03-17T07:16:16;98831.16;;;8.07;48.19
6506;BME280;3286;49.858;8.768;2023-03-17T07:18:45;98818.78;;;7.69;48.39
6506;BME280;3286;49.858;8.768;2023-03-17T07:21:12;98817.63;;;8.02;47.97
6506;BME280;3286;49.858;8.768;2023-03-17T07:23:40;98817.56;;;8.21;46.38
6506;BME280;3286;49.858;8.768;2023-03-17T07:26:06;98819.34;;;8.21;46.80
6506;BME280;3286;49.858;8.768;2023-03-17T07:28:34;98817.34;;;8.43;46.88
6506;BME280;3286;49.858;8.768;2023-03-17T07:31:01;98813.34;;;8.66;46.57
6506;BME280;3286;49.858;8.768;2023-03-17T07:33:29;98808.84;;;8.59;46.48
6506;BME280;3286;49.858;8.768;2023-03-17T07:35:57;98805.94;;;8.80;46.78
6506;BME280;3286;49.858;8.768;2023-03-17T07:38:24;98812.34;;;9.13;45.04
6506;BME280;3286;49.858;8.768;2023-03-17T07:40:51;98805.94;;;9.16;45.96
6506;BME280;3286;49.858;8.768;2023-03-17T07:43:18;98804.50;;;9.04;45.37
6506;BME280;3286;49.858;8.768;2023-03-17T07:45:45;98807.88;;;8.96;45.63
6506;BME280;3286;49.858;8.768;2023-03-17T07:48:12;98797.72;;;9.82;44.76
6506;BME280;3286;49.858;8.768;2023-03-17T07:50:40;98807.38;;;8.92;46.90
6506;BME280;3286;49.858;8.768;2023-03-17T07:53:07;98813.25;;;8.86;48.79
6506;BME280;3286;49.858;8.768;2023-03-17T07:55:34;98802.47;;;9.34;47.10
6506;BME280;3286;49.858;8.768;2023-03-17T07:58:02;98798.88;;;9.88;46.06
6506;BME280;3286;49.858;8.768;2023-03-17T08:00:28;98789.63;;;9.57;45.78
6506;BME280;3286;49.858;8.768;2023-03-17T08:02:56;98793.53;;;10.06;45.34
6506;BME280;3286;49.858;8.768;2023-03-17T08:05:22;98795.56;;;9.85;45.06
6506;BME280;3286;49.858;8.768;2023-03-17T08:07:51;98787.47;;;10.40;44.78
6506;BME280;3286;49.858;8.768;2023-03-17T08:10:18;98795.59;;;10.47;45.17
6506;BME280;3286;49.858;8.768;2023-03-17T08:12:44;98790.88;;;9.71;45.88
6506;BME280;3286;49.858;8.768;2023-03-17T08:15:16;98781.09;;;10.59;44.90
6506;BME280;3286;49.858;8.768;2023-03-17T08:17:42;98774.22;;;10.83;44.92
6506;BME280;3286;49.858;8.768;2023-03-17T08:20:11;98771.72;;;10.81;44.06
6506;BME280;3286;49.858;8.768;2023-03-17T08:22:38;98780.28;;;10.32;44.26
6506;BME280;3286;49.858;8.768;2023-03-17T08:25:07;98784.59;;;10.84;43.86
6506;BME280;3286;49.858;8.768;2023-03-17T08:27:36;98783.19;;;11.23;42.83
6506;BME280;3286;49.858;8.768;2023-03-17T08:30:03;98776.25;;;11.22;43.16
6506;BME280;3286;49.858;8.768;2023-03-17T08:32:30;98780.09;;;11.93;42.26
6506;BME280;3286;49.858;8.768;2023-03-17T08:34:57;98783.53;;;12.18;41.74
6506;BME280;3286;49.858;8.768;2023-03-17T08:37:24;98769.72;;;12.39;41.42
6506;BME280;3286;49.858;8.768;2023-03-17T08:39:51;98779.19;;;12.65;41.19
6506;BME280;3286;49.858;8.768;2023-03-17T08:42:19;98778.16;;;12.43;40.59
6506;BME280;3286;49.858;8.768;2023-03-17T08:44:46;98764.19;;;13.04;40.23
6506;BME280;3286;49.858;8.768;2023-03-17T08:47:13;98765.41;;;12.46;39.94
6506;BME280;3286;49.858;8.768;2023-03-17T08:49:40;98763.47;;;12.64;40.06
6506;BME280;3286;49.858;8.768;2023-03-17T08:52:07;98760.66;;;13.88;37.77
6506;BME280;3286;49.858;8.768;2023-03-17T08:54:35;98763.66;;;12.62;39.83
6506;BME280;3286;49.858;8.768;2023-03-17T08:57:02;98755.94;;;12.75;40.01
6506;BME280;3286;49.858;8.768;2023-03-17T08:59:30;98749.66;;;13.38;38.36
6506;BME280;3286;49.858;8.768;2023-03-17T09:01:57;98759.22;;;12.86;39.30
6506;BME280;3286;49.858;8.768;2023-03-17T09:04:23;98752.41;;;13.68;37.68
6506;BME280;3286;49.858;8.768;2023-03-17T09:06:50;98753.41;;;13.67;38.04
6506;BME280;3286;49.858;8.768;2023-03-17T09:09:19;98741.97;;;13.52;39.13
6506;BME280;3286;49.858;8.768;2023-03-17T09:11:46;98738.13;;;13.31;39.16
6506;BME280;3286;49.858;8.768;2023-03-17T09:14:12;98740.16;;;13.97;38.24
6506;BME280;3286;49.858;8.768;2023-03-17T09:16:41;98756.34;;;13.72;36.90
6506;BME280;3286;49.858;8.768;2023-03-17T09:19:07;98751.31;;;14.23;36.00
6506;BME280;3286;49.858;8.768;2023-03-17T09:21:34;98740.53;;;14.46;36.20
6506;BME280;3286;49.858;8.768;2023-03-17T09:24:01;98742.72;;;14.05;38.11
6506;BME280;3286;49.858;8.768;2023-03-17T09:26:27;98740.16;;;14.49;38.08
6506;BME280;3286;49.858;8.768;2023-03-17T09:28:54;98743.41;;;15.25;34.44
6506;BME280;3286;49.858;8.768;2023-03-17T09:31:21;98742.75;;;15.23;34.30
6506;BME280;3286;49.858;8.768;2023-03-17T09:33:49;98744.94;;;14.90;35.94
6506;BME280;3286;49.858;8.768;2023-03-17T09:36:16;98737.59;;;15.14;35.10
6506;BME280;3286;49.858;8.768;2023-03-17T09:38:43;98739.25;;;15.22;36.15
6506;BME280;3286;49.858;8.768;2023-03-17T09:41:29;98728.06;;;15.27;34.33
6506;BME280;3286;49.858;8.768;2023-03-17T09:44:04;98728.59;;;15.15;34.93
6506;BME280;3286;49.858;8.768;2023-03-17T09:46:43;98721.16;;;15.96;34.15
6506;BME280;3286;49.858;8.768;2023-03-17T09:49:17;98715.03;;;14.88;35.46
6506;BME280;3286;49.858;8.768;2023-03-17T09:51:45;98721.03;;;15.19;35.45
6506;BME280;3286;49.858;8.768;2023-03-17T09:54:15;98721.72;;;15.28;35.67
6506;BME280;3286;49.858;8.768;2023-03-17T09:56:47;98710.94;;;16.00;33.44
6506;BME280;3286;49.858;8.768;2023-03-17T09:59:27;98701.41;;;14.76;36.77
6506;BME280;3286;49.858;8.768;2023-03-17T10:01:55;98714.38;;;15.08;37.10
6506;BME280;3286;49.858;8.768;2023-03-17T10:04:24;98707.78;;;15.26;35.97
6506;BME280;3286;49.858;8.768;2023-03-17T10:06:51;98707.72;;;15.19;36.22
6506;BME280;3286;49.858;8.768;2023-03-17T10:09:24;98705.34;;;15.59;35.86
6506;BME280;3286;49.858;8.768;2023-03-17T10:12:00;98699.69;;;16.11;34.85
6506;BME280;3286;49.858;8.768;2023-03-17T10:14:37;98698.06;;;15.40;36.00
6506;BME280;3286;49.858;8.768;2023-03-17T10:17:13;98692.50;;;15.98;35.29
6506;BME280;3286;49.858;8.768;2023-03-17T10:19:46;98696.03;;;16.19;34.29
6506;BME280;3286;49.858;8.768;2023-03-17T10:22:18;98691.00;;;16.44;34.19
6506;BME280;3286;49.858;8.768;2023-03-17T10:24:50;98689.25;;;16.85;33.60
6506;BME280;3286;49.858;8.768;2023-03-17T10:27:17;98684.72;;;16.86;33.76
6506;BME280;3286;49.858;8.768;2023-03-17T10:29:44;98682.91;;;17.06;32.34
6506;BME280;3286;49.858;8.768;2023-03-17T10:32:13;98689.25;;;16.85;33.17
6506;BME280;3286;49.858;8.768;2023-03-17T10:34:40;98695.03;;;17.16;32.58
6506;BME280;3286;49.858;8.768;2023-03-17T10:37:12;98688.84;;;17.42;31.74
6506;BME280;3286;49.858;8.768;2023-03-17T10:39:45;98684.47;;;17.61;31.68
6506;BME280;3286;49.858;8.768;2023-03-17T10:42:20;98684.19;;;18.03;31.28
6506;BME280;3286;49.858;8.768;2023-03-17T10:44:50;98685.09;;;17.77;31.18
6506;BME280;3286;49.858;8.768;2023-03-17T10:47:30;98688.84;;;17.22;31.33
6506;BME280;3286;49.858;8.768;2023-03-17T10:50:01;98680.97;;;17.74;30.85
6506;BME280;3286;49.858;8.768;2023-03-17T10:52:35;98682.66;;;16.94;32.89
6506;BME280;3286;49.858;8.768;2023-03-17T10:55:05;98674.44;;;17.57;31.78
6506;BME280;3286;49.858;8.768;2023-03-17T10:57:35;98674.22;;;17.58;32.16
6506;BME280;3286;49.858;8.768;2023-03-17T11:00:12;98673.91;;;18.78;30.14
6506;BME280;3286;49.858;8.768;2023-03-17T11:02:43;98677.44;;;18.39;30.62
6506;BME280;3286;49.858;8.768;2023-03-17T11:05:18;98682.97;;;18.77;30.17
6506;BME280;3286;49.858;8.768;2023-03-17T11:07:47;98673.03;;;18.52;30.82
6506;BME280;3286;49.858;8.768;2023-03-17T11:12:46;98666.22;;;18.56;30.77
6506;BME280;3286;49.858;8.768;2023-03-17T11:15:15;98665.47;;;18.49;29.99
6506;BME280;3286;49.858;8.768;2023-03-17T11:17:50;98664.34;;;17.72;31.63
6506;BME280;3286;49.858;8.768;2023-03-17T11:20:37;98665.25;;;18.05;30.68
6506;BME280;3286;49.858;8.768;2023-03-17T11:23:14;98663.00;;;18.02;32.66
6506;BME280;3286;49.858;8.768;2023-03-17T11:25:44;98663.47;;;17.85;31.67
6506;BME280;3286;49.858;8.768;2023-03-17T11:28:17;98668.94;;;18.17;31.08
6506;BME280;3286;49.858;8.768;2023-03-17T11:30:52;98659.38;;;18.35;30.53
6506;BME280;3286;49.858;8.768;2023-03-17T11:33:32;98650.16;;;18.63;30.88
6506;BME280;3286;49.858;8.768;2023-03-17T11:36:07;98644.94;;;19.00;30.61
6506;BME280;3286;49.858;8.768;2023-03-17T11:38:41;98643.34;;;18.60;30.89
6506;BME280;3286;49.858;8.768;2023-03-17T11:41:42;98645.72;;;18.75;30.59
6506;BME280;3286;49.858;8.768;2023-03-17T11:47:32;98645.97;;;17.96;32.06
6506;BME280;3286;49.858;8.768;2023-03-17T11:50:07;98650.03;;;18.44;31.33
6506;BME280;3286;49.858;8.768;2023-03-17T11:52:47;98631.47;;;18.81;31.07
6506;BME280;3286;49.858;8.768;2023-03-17T11:55:22;98628.06;;;18.67;31.50
6506;BME280;3286;49.858;8.768;2023-03-17T11:57:55;98627.75;;;18.82;30.77
6506;BME280;3286;49.858;8.768;2023-03-17T12:00:24;98628.00;;;18.49;31.89
6506;BME280;3286;49.858;8.768;2023-03-17T12:02:57;98625.63;;;17.95;32.68
6506;BME280;3286;49.858;8.768;2023-03-17T12:05:26;98613.75;;;18.30;31.57
6506;BME280;3286;49.858;8.768;2023-03-17T12:07:56;98611.22;;;19.18;30.97
6506;BME280;3286;49.858;8.768;2023-03-17T12:10:29;98607.38;;;19.51;29.85
6506;BME280;3286;49.858;8.768;2023-03-17T12:13:02;98603.91;;;19.06;31.43
6506;BME280;3286;49.858;8.768;2023-03-17T12:15:33;98607.75;;;19.36;30.15
6506;BME280;3286;49.858;8.768;2023-03-17T12:18:05;98604.47;;;19.71;30.12
6506;BME280;3286;49.858;8.768;2023-03-17T12:20:40;98607.88;;;19.22;31.11
6506;BME280;3286;49.858;8.768;2023-03-17T12:23:16;98604.84;;;19.93;29.06
6506;BME280;3286;49.858;8.768;2023-03-17T12:25:50;98606.44;;;19.76;30.60
6506;BME280;3286;49.858;8.768;2023-03-17T12:28:26;98598.97;;;19.66;29.20
6506;BME280;3286;49.858;8.768;2023-03-17T12:31:00;98589.72;;;19.80;29.51
6506;BME280;3286;49.858;8.768;2023-03-17T12:33:35;98597.28;;;19.09;31.20
6506;BME280;3286;49.858;8.768;2023-03-17T12:36:04;98580.88;;;19.61;30.01
6506;BME280;3286;49.858;8.768;2023-03-17T12:38:36;98589.94;;;19.97;30.02
6506;BME280;3286;49.858;8.768;2023-03-17T12:41:16;98592.09;;;18.89;32.23
6506;BME280;3286;49.858;8.768;2023-03-17T12:44:00;98590.84;;;19.35;31.37
6506;BME280;3286;49.858;8.768;2023-03-17T12:46:39;98589.66;;;19.50;31.10
6506;BME280;3286;49.858;8.768;2023-03-17T12:49:37;98581.69;;;20.53;29.46
6506;BME280;3286;49.858;8.768;2023-03-17T12:52:20;98581.34;;;20.07;29.93
6506;BME280;3286;49.858;8.768;2023-03-17T12:54:51;98583.41;;;19.37;31.12
6506;BME280;3286;49.858;8.768;2023-03-17T12:57:21;98580.53;;;19.88;29.89
6506;BME280;3286;49.858;8.768;2023-03-17T12:59:57;98579.66;;;19.94;29.42
6506;BME280;3286;49.858;8.768;2023-03-17T13:02:31;98574.09;;;20.50;29.19
6506;BME280;3286;49.858;8.768;2023-03-17T13:04:59;98567.56;;;20.46;29.50
6506;BME280;3286;49.858;8.768;2023-03-17T13:07:32;98562.88;;;20.84;28.97
6506;BME280;3286;49.858;8.768;2023-03-17T13:10:34;98562.50;;;20.92;28.37
6506;BME280;3286;49.858;8.768;2023-03-17T13:13:10;98567.53;;;19.92;30.17
6506;BME280;3286;49.858;8.768;2023-03-17T13:15:52;98561.28;;;20.40;29.17
6506;BME280;3286;49.858;8.768;2023-03-17T13:18:44;98544.16;;;20.77;28.80
6506;BME280;3286;49.858;8.768;2023-03-17T13:21:28;98544.31;;;20.28;28.31
6506;BME280;3286;49.858;8.768;2023-03-17T13:23:58;98543.75;;;20.38;28.79
6506;BME280;3286;49.858;8.768;2023-03-17T13:26:51;98534.31;;;21.42;27.55
6506;BME280;3286;49.858;8.768;2023-03-17T13:29:26;98528.53;;;21.51;26.92
6506;BME280;3286;49.858;8.768;2023-03-17T13:32:34;98531.28;;;21.27;26.47
6506;BME280;3286;49.858;8.768;2023-03-17T13:35:19;98522.44;;;21.15;26.87
6506;BME280;3286;49.858;8.768;2023-03-17T13:41:04;98521.88;;;21.01;27.40
6506;BME280;3286;49.858;8.768;2023-03-17T13:43:55;98518.19;;;21.42;26.13
6506;BME280;3286;49.858;8.768;2023-03-17T13:46:31;98522.66;;;20.53;27.61
6506;BME280;3286;49.858;8.768;2023-03-17T13:49:02;98521.50;;;20.61;27.91
6506;BME280;3286;49.858;8.768;2023-03-17T13:51:40;98523.03;;;21.05;26.81
6506;BME280;3286;49.858;8.768;2023-03-17T13:54:19;98531.75;;;20.29;27.66
6506;BME280;3286;49.858;8.768;2023-03-17T13:56:47;98518.09;;;20.78;27.56